Terminal Aerodrome Forecast
Issued by NWS Kansas City/Pleasant Hill, MO

Home | Current Version | Previous Version | Text Only | Print | Product List | Glossary On
Versions: 1 2 3 4 5 6 7 8 9 10 11 12 13 14 15 16 17
599
FTUS43 KEAX 081125
TAFMCI
TAF
KMCI 081125Z 0812/0912 32018G28KT P6SM -SN OVC050
      TEMPO 0813/0816 4SM -SHSN BKN035
     FM081600 33026G38KT P6SM OVC050
      TEMPO 0816/0818 5SM -SHSN BKN035
     FM082300 33018G24KT P6SM BKN050
     FM090300 32014KT P6SM SCT050=

USA.gov is the U.S. government's official web portal to all federal, state and local government web resources and services.